Time;durP1;ratioP1;P1;durP2;ratioP2;P2;SDS_P1;SDS_P2;PMS_P1;PMS_P2;Temp;Humidity;BMP_temperature;BMP_pressure;BME280_temperature;BME280_humidity;BME280_pressure;Samples;Min_cycle;Max_cycle;Signal;HPM_P1;HPM_P2
2021/04/09 00:01:59;;;;;;;4.50;1.50;;;17.20;49.60;;;;;;5076474;28;20265;-68
2021/04/09 00:04:25;;;;;;;1.58;1.40;;;17.10;49.60;;;;;;5076789;28;20618;-64
2021/04/09 00:06:51;;;;;;;1.20;1.10;;;17.10;49.50;;;;;;5060476;28;20173;-66
2021/04/09 00:09:17;;;;;;;1.70;1.30;;;17.10;49.50;;;;;;5094094;28;20236;-62
2021/04/09 00:11:43;;;;;;;2.85;1.50;;;17.10;49.50;;;;;;5076895;28;20170;-66
2021/04/09 00:14:09;;;;;;;1.73;1.58;;;17.10;49.50;;;;;;5076757;28;20543;-65
2021/04/09 00:16:35;;;;;;;1.50;1.40;;;17.10;49.60;;;;;;5042780;28;20162;-64
2021/04/09 00:19:01;;;;;;;2.65;1.73;;;17.10;49.70;;;;;;5076818;28;20692;-69
2021/04/09 00:21:27;;;;;;;1.55;1.30;;;17.00;49.70;;;;;;5059893;28;20174;-62
2021/04/09 00:23:52;;;;;;;1.70;1.50;;;17.00;49.70;;;;;;5076050;28;20174;-68
2021/04/09 00:26:18;;;;;;;1.52;1.30;;;17.00;49.70;;;;;;5076731;28;20506;-61
2021/04/09 00:28:44;;;;;;;2.78;1.50;;;17.00;49.60;;;;;;5094632;28;20233;-62
2021/04/09 00:31:09;;;;;;;2.00;1.80;;;17.00;49.80;;;;;;5076011;28;20166;-67
2021/04/09 00:33:35;;;;;;;1.67;1.58;;;17.00;49.70;;;;;;5076250;28;20185;-65
2021/04/09 00:36:01;;;;;;;2.83;1.60;;;17.00;49.70;;;;;;5076371;28;20507;-63
2021/04/09 00:38:26;;;;;;;1.88;1.30;;;17.00;49.80;;;;;;5093591;28;20260;-61
2021/04/09 00:40:52;;;;;;;2.72;1.67;;;17.00;49.80;;;;;;5094328;28;20184;-67
2021/04/09 00:43:17;;;;;;;1.55;1.30;;;16.90;49.70;;;;;;5094530;28;20645;-61
2021/04/09 00:45:43;;;;;;;1.50;1.40;;;16.90;49.70;;;;;;5075367;28;20173;-61
2021/04/09 00:48:09;;;;;;;1.60;1.50;;;16.90;49.90;;;;;;5094233;28;20228;-62
2021/04/09 00:50:35;;;;;;;1.92;1.83;;;16.90;49.80;;;;;;5075280;28;20194;-64
2021/04/09 00:53:01;;;;;;;1.80;1.38;;;16.90;49.90;;;;;;5059498;28;20209;-61
2021/04/09 00:55:27;;;;;;;1.75;1.65;;;16.90;49.90;;;;;;5075867;28;20653;-64
2021/04/09 00:57:52;;;;;;;1.50;1.40;;;16.90;49.90;;;;;;5058818;28;20165;-63
2021/04/09 01:00:20;;;;;;;2.13;1.85;;;16.90;49.80;;;;;;5076057;28;20170;-65
2021/04/09 01:02:45;;;;;;;1.60;1.30;;;16.90;49.90;;;;;;5093891;28;20173;-62
2021/04/09 01:05:12;;;;;;;1.77;1.65;;;16.90;49.80;;;;;;5075134;28;20648;-66
2021/04/09 01:07:38;;;;;;;3.03;1.73;;;16.90;49.90;;;;;;5059032;28;20205;-62
2021/04/09 01:10:05;;;;;;;1.60;1.50;;;16.90;49.90;;;;;;5042318;28;20255;-62
2021/04/09 01:12:31;;;;;;;3.78;1.60;;;16.80;49.90;;;;;;5058238;28;20177;-63
2021/04/09 01:14:57;;;;;;;1.52;1.42;;;16.80;50.00;;;;;;5093968;28;20537;-62
2021/04/09 01:17:29;;;;;;;1.52;1.42;;;16.80;49.90;;;;;;5075448;28;20170;-61
2021/04/09 01:20:00;;;;;;;2.10;1.60;;;16.80;50.10;;;;;;5058734;28;20181;-61
2021/04/09 01:22:27;;;;;;;1.60;1.50;;;16.80;50.00;;;;;;5093300;28;20594;-61
2021/04/09 01:25:33;;;;;;;4.45;1.83;;;16.80;50.00;;;;;;5075242;28;20174;-68
2021/04/09 01:28:17;;;;;;;1.65;1.55;;;16.80;50.00;;;;;;5074709;28;20203;-62
2021/04/09 01:31:24;;;;;;;2.55;1.58;;;16.80;49.90;;;;;;5076095;28;20248;-62
2021/04/09 01:33:51;;;;;;;1.73;1.63;;;16.80;49.90;;;;;;4991168;28;20719;-63
2021/04/09 01:36:21;;;;;;;1.65;1.55;;;16.80;49.90;;;;;;4959688;28;20341;-62
2021/04/09 01:38:56;;;;;;;1.75;1.60;;;16.80;49.80;;;;;;5028264;28;20710;-63
2021/04/09 01:41:21;;;;;;;2.80;1.60;;;16.70;49.80;;;;;;5058364;28;20165;-67
2021/04/09 01:43:47;;;;;;;2.10;1.67;;;16.70;49.70;;;;;;5075136;28;20177;-61
2021/04/09 01:46:13;;;;;;;3.17;1.92;;;16.70;49.80;;;;;;5075171;28;20182;-68
2021/04/09 01:48:40;;;;;;;1.55;1.30;;;16.70;49.80;;;;;;5057572;28;20204;-61
2021/04/09 01:51:08;;;;;;;1.80;1.70;;;16.70;49.70;;;;;;5059189;28;20189;-62
2021/04/09 01:53:34;;;;;;;1.52;1.42;;;16.70;49.70;;;;;;5058500;28;20174;-61
2021/04/09 01:55:59;;;;;;;1.60;1.50;;;16.70;49.80;;;;;;5057840;28;20169;-62
2021/04/09 01:58:26;;;;;;;2.03;1.58;;;16.70;49.70;;;;;;5058121;28;20181;-63
2021/04/09 02:00:51;;;;;;;1.88;1.67;;;16.70;49.80;;;;;;5057434;28;20262;-62
2021/04/09 02:03:26;;;;;;;1.98;1.67;;;16.70;49.80;;;;;;5058436;28;20256;-65
2021/04/09 02:05:51;;;;;;;1.50;1.40;;;16.70;49.60;;;;;;5074910;28;20632;-66
2021/04/09 02:08:17;;;;;;;2.15;1.67;;;16.60;49.70;;;;;;5040910;28;20220;-63
2021/04/09 02:10:43;;;;;;;1.80;1.70;;;16.60;49.70;;;;;;5057874;28;20233;-67
2021/04/09 02:13:08;;;;;;;1.95;1.50;;;16.60;49.60;;;;;;5058276;28;20181;-61
2021/04/09 02:15:34;;;;;;;1.90;1.75;;;16.60;49.70;;;;;;5091449;28;20236;-68
2021/04/09 02:17:59;;;;;;;2.22;1.80;;;16.60;49.70;;;;;;5058108;28;20547;-61
2021/04/09 02:20:25;;;;;;;2.25;1.80;;;16.60;49.70;;;;;;5057731;28;20170;-61
2021/04/09 02:22:51;;;;;;;1.98;1.85;;;16.60;49.70;;;;;;5074074;28;20692;-68
2021/04/09 02:25:18;;;;;;;1.63;1.52;;;16.60;49.60;;;;;;5074697;28;20250;-62
2021/04/09 02:27:44;;;;;;;1.75;1.65;;;16.60;49.80;;;;;;5092665;28;20185;-66
2021/04/09 02:30:11;;;;;;;3.28;1.50;;;16.60;49.70;;;;;;5074058;28;20178;-62
2021/04/09 02:32:36;;;;;;;3.88;1.80;;;16.60;49.80;;;;;;5057676;28;20174;-62
2021/04/09 02:35:04;;;;;;;3.25;1.85;;;16.60;49.80;;;;;;5057725;28;20178;-67
2021/04/09 02:37:29;;;;;;;1.98;1.70;;;16.50;49.80;;;;;;5057169;28;20166;-66
2021/04/09 02:40:00;;;;;;;2.58;1.88;;;16.60;49.70;;;;;;5092649;28;20193;-68
2021/04/09 02:42:26;;;;;;;2.58;2.10;;;16.60;49.80;;;;;;5074292;28;20626;-61
2021/04/09 02:44:55;;;;;;;1.77;1.58;;;16.50;49.70;;;;;;5057127;28;20180;-61
2021/04/09 02:47:22;;;;;;;2.25;1.77;;;16.50;49.90;;;;;;5092248;28;20166;-61
2021/04/09 02:50:12;;;;;;;1.98;1.77;;;16.50;49.80;;;;;;5074512;28;20178;-61
2021/04/09 02:52:49;;;;;;;3.45;2.35;;;16.50;49.80;;;;;;5062385;28;20193;-61
2021/04/09 02:55:17;;;;;;;3.10;1.70;;;16.50;49.70;;;;;;5074593;28;20215;-66
2021/04/09 02:57:44;;;;;;;2.28;2.00;;;16.50;49.90;;;;;;5040511;28;20180;-62
2021/04/09 03:00:10;;;;;;;1.98;1.65;;;16.50;50.00;;;;;;5092293;28;20161;-68
2021/04/09 03:02:35;;;;;;;1.98;1.88;;;16.50;49.90;;;;;;5057404;28;20510;-67
2021/04/09 03:05:03;;;;;;;2.70;2.35;;;16.50;49.80;;;;;;5073551;28;20170;-62
2021/04/09 03:07:29;;;;;;;2.30;1.83;;;16.40;49.90;;;;;;5057778;28;20637;-61
2021/04/09 03:09:54;;;;;;;2.20;1.83;;;16.40;49.70;;;;;;5057587;28;20260;-67
2021/04/09 03:12:20;;;;;;;2.42;1.88;;;16.40;49.80;;;;;;5073491;28;20622;-63
2021/04/09 03:14:49;;;;;;;2.58;2.08;;;16.50;49.90;;;;;;5057500;28;20177;-61
2021/04/09 03:17:20;;;;;;;2.50;2.28;;;16.50;49.80;;;;;;5057615;28;20170;-61
2021/04/09 03:19:46;;;;;;;2.13;2.00;;;16.40;49.60;;;;;;5057453;28;20166;-67
2021/04/09 03:22:12;;;;;;;3.42;2.28;;;16.40;49.70;;;;;;5092008;28;20174;-62
2021/04/09 03:24:37;;;;;;;3.05;2.33;;;16.40;49.60;;;;;;5057276;28;20177;-62
2021/04/09 03:27:08;;;;;;;2.78;2.13;;;16.40;49.80;;;;;;5057703;28;20590;-61
2021/04/09 03:29:34;;;;;;;2.80;2.15;;;16.40;49.60;;;;;;5077744;28;20216;-62
2021/04/09 03:32:00;;;;;;;2.20;2.00;;;16.40;49.50;;;;;;5077589;28;20530;-66
2021/04/09 03:34:25;;;;;;;2.25;2.08;;;16.40;49.60;;;;;;5060011;28;20170;-64
2021/04/09 03:36:51;;;;;;;2.65;2.38;;;16.40;49.60;;;;;;5095714;28;20327;-66
2021/04/09 03:39:16;;;;;;;2.75;2.28;;;16.40;49.50;;;;;;5095547;28;20180;-62
2021/04/09 03:41:42;;;;;;;2.83;2.53;;;16.40;49.50;;;;;;5095022;28;20184;-61
2021/04/09 03:44:08;;;;;;;3.33;2.80;;;16.40;50.10;;;;;;5095430;28;20576;-61
2021/04/09 03:46:33;;;;;;;2.97;2.30;;;16.30;49.60;;;;;;5094688;28;20209;-61
2021/04/09 03:48:59;;;;;;;2.95;2.13;;;16.40;49.50;;;;;;5060625;28;20292;-66
2021/04/09 03:51:25;;;;;;;3.00;2.60;;;16.30;49.50;;;;;;5095114;28;20671;-61
2021/04/09 03:53:50;;;;;;;2.95;2.45;;;16.30;49.40;;;;;;5076604;28;20170;-61
2021/04/09 03:56:16;;;;;;;2.75;2.17;;;16.30;49.60;;;;;;5077306;28;20231;-61
2021/04/09 03:58:41;;;;;;;2.80;2.22;;;16.30;49.40;;;;;;5077008;28;20176;-67
2021/04/09 04:01:07;;;;;;;2.60;2.25;;;16.30;49.50;;;;;;5076549;28;20178;-68
2021/04/09 04:03:32;;;;;;;2.75;2.50;;;16.30;49.30;;;;;;5094918;28;20694;-61
2021/04/09 04:05:58;;;;;;;2.58;2.17;;;16.30;49.30;;;;;;5077023;28;20173;-68
2021/04/09 04:08:23;;;;;;;2.15;2.00;;;16.30;49.20;;;;;;5076089;28;20220;-62
2021/04/09 04:10:49;;;;;;;2.88;2.47;;;16.30;49.40;;;;;;5094827;28;20210;-61
2021/04/09 04:13:15;;;;;;;2.40;2.20;;;16.30;49.30;;;;;;5095143;28;20178;-66
2021/04/09 04:15:40;;;;;;;3.40;2.45;;;16.30;49.20;;;;;;5076043;28;20554;-62
2021/04/09 04:18:06;;;;;;;2.63;2.30;;;16.30;49.20;;;;;;5094812;28;20206;-61
2021/04/09 04:20:31;;;;;;;2.30;2.10;;;16.30;49.90;;;;;;5076545;28;20208;-66
2021/04/09 04:22:57;;;;;;;3.90;2.30;;;16.20;49.40;;;;;;5076040;28;20185;-61
2021/04/09 04:25:23;;;;;;;1.98;1.88;;;16.20;49.20;;;;;;5094433;28;20192;-67
2021/04/09 04:27:48;;;;;;;2.88;2.58;;;16.20;49.10;;;;;;5076620;28;20205;-66
2021/04/09 04:30:14;;;;;;;2.80;2.50;;;16.20;49.10;;;;;;5059335;28;20184;-63
2021/04/09 04:32:41;;;;;;;2.83;2.60;;;16.20;49.10;;;;;;5094244;28;20231;-66
2021/04/09 04:35:07;;;;;;;3.75;2.55;;;16.10;49.00;;;;;;5076654;28;20166;-62
2021/04/09 04:37:33;;;;;;;3.45;2.45;;;16.20;49.10;;;;;;5093198;28;20186;-61
2021/04/09 04:39:59;;;;;;;2.80;2.60;;;16.20;49.10;;;;;;5076366;28;20248;-60
2021/04/09 04:42:24;;;;;;;2.53;2.33;;;16.20;49.10;;;;;;5094226;28;20230;-66
2021/04/09 04:44:50;;;;;;;2.53;2.33;;;16.20;49.10;;;;;;5075654;28;20170;-66
2021/04/09 04:47:15;;;;;;;2.47;2.28;;;16.20;49.90;;;;;;5094387;28;20174;-60
2021/04/09 04:49:41;;;;;;;2.65;2.45;;;16.10;49.10;;;;;;5075095;28;20214;-60
2021/04/09 04:52:06;;;;;;;3.08;2.50;;;16.20;49.10;;;;;;5094198;28;20232;-64
2021/04/09 04:54:32;;;;;;;2.60;2.38;;;16.10;49.00;;;;;;5093926;28;20272;-66
2021/04/09 04:56:58;;;;;;;3.28;2.72;;;16.20;49.10;;;;;;5093627;28;20177;-64
2021/04/09 04:59:23;;;;;;;2.55;2.35;;;16.10;49.00;;;;;;5093917;28;20162;-67
2021/04/09 05:01:49;;;;;;;2.40;2.20;;;16.20;49.10;;;;;;5075947;28;20694;-66
2021/04/09 05:04:14;;;;;;;2.72;2.10;;;16.10;49.10;;;;;;5093181;28;20170;-66
2021/04/09 05:06:40;;;;;;;2.70;2.47;;;16.10;49.10;;;;;;5093730;28;20177;-66
2021/04/09 05:09:06;;;;;;;2.65;2.40;;;16.10;49.20;;;;;;5093545;28;20265;-66
2021/04/09 05:11:32;;;;;;;2.50;1.90;;;16.10;49.20;;;;;;5093019;28;20245;-66
2021/04/09 05:13:58;;;;;;;2.65;2.10;;;16.20;49.20;;;;;;5042440;28;20223;-62
2021/04/09 05:16:23;;;;;;;1.90;1.80;;;16.40;49.40;;;;;;5093661;28;20178;-66
2021/04/09 05:18:49;;;;;;;2.55;1.98;;;16.60;49.20;;;;;;5074849;28;20176;-66
2021/04/09 05:21:14;;;;;;;2.10;1.80;;;16.90;48.90;;;;;;5093746;28;20198;-68
2021/04/09 05:23:40;;;;;;;2.00;1.90;;;17.10;48.50;;;;;;5058637;28;20533;-62
2021/04/09 05:26:06;;;;;;;1.70;1.60;;;17.50;48.20;;;;;;5093262;28;20163;-67
2021/04/09 05:28:31;;;;;;;1.88;1.70;;;17.90;47.40;;;;;;5093099;28;20562;-62
2021/04/09 05:30:57;;;;;;;1.90;1.75;;;18.20;47.50;;;;;;5075628;28;20166;-62
2021/04/09 05:33:23;;;;;;;2.13;1.80;;;18.40;46.50;;;;;;5074542;28;20535;-66
2021/04/09 05:35:49;;;;;;;2.00;1.90;;;18.60;46.20;;;;;;5075256;28;20166;-62
2021/04/09 05:38:14;;;;;;;1.95;1.75;;;18.70;46.10;;;;;;5093535;28;20553;-67
2021/04/09 05:40:40;;;;;;;1.85;1.67;;;18.80;45.90;;;;;;5074384;28;20174;-64
2021/04/09 05:43:07;;;;;;;2.03;1.60;;;18.80;45.70;;;;;;5075177;28;20166;-68
2021/04/09 05:45:32;;;;;;;1.88;1.70;;;18.90;45.80;;;;;;5092958;28;20172;-61
2021/04/09 05:48:07;;;;;;;2.35;1.80;;;18.80;45.80;;;;;;5092585;28;20209;-68
2021/04/09 05:50:33;;;;;;;1.60;1.50;;;18.90;45.80;;;;;;5075747;28;20169;-67
2021/04/09 05:52:59;;;;;;;1.65;1.55;;;18.90;45.80;;;;;;5074499;28;20169;-67
2021/04/09 05:55:25;;;;;;;1.77;1.50;;;18.90;45.80;;;;;;5074798;28;20165;-68
2021/04/09 05:57:51;;;;;;;1.77;1.67;;;18.90;45.90;;;;;;5074955;28;20170;-66
2021/04/09 06:00:17;;;;;;;2.92;1.55;;;18.90;45.90;;;;;;5074446;28;20169;-65
2021/04/09 06:02:42;;;;;;;2.00;1.80;;;18.80;46.00;;;;;;5092718;28;20184;-66
2021/04/09 06:05:08;;;;;;;2.30;1.70;;;18.80;46.70;;;;;;5092711;28;20166;-66
2021/04/09 06:07:34;;;;;;;1.55;1.45;;;18.80;46.00;;;;;;5073967;28;20186;-63
2021/04/09 06:10:00;;;;;;;2.03;1.50;;;18.80;46.10;;;;;;5092560;28;20234;-67
2021/04/09 06:12:26;;;;;;;2.30;1.85;;;18.80;46.10;;;;;;5074694;28;20243;-62
2021/04/09 06:14:52;;;;;;;2.33;1.80;;;18.80;46.00;;;;;;5074181;28;20216;-69
2021/04/09 06:17:18;;;;;;;2.75;1.75;;;18.80;46.10;;;;;;5092849;28;20585;-68
2021/04/09 06:19:44;;;;;;;2.28;1.63;;;18.80;46.10;;;;;;5074864;28;20694;-62
2021/04/09 06:22:10;;;;;;;2.67;1.63;;;18.80;46.20;;;;;;5091929;28;20188;-61
2021/04/09 06:24:37;;;;;;;1.92;1.40;;;18.70;46.30;;;;;;5074345;28;20241;-68
2021/04/09 06:27:03;;;;;;;1.50;1.40;;;18.60;46.40;;;;;;5092653;28;20633;-69
2021/04/09 06:29:29;;;;;;;1.98;1.60;;;18.50;46.60;;;;;;5091714;28;20237;-62
2021/04/09 06:31:55;;;;;;;1.50;1.40;;;18.40;46.80;;;;;;5041246;28;20633;-63
2021/04/09 06:34:20;;;;;;;1.92;1.50;;;18.30;47.00;;;;;;5092162;28;20206;-63
2021/04/09 06:36:46;;;;;;;2.65;1.95;;;18.20;47.10;;;;;;5074138;28;20629;-62
2021/04/09 06:39:11;;;;;;;1.67;1.58;;;18.20;47.30;;;;;;5092523;28;20169;-68
2021/04/09 06:41:37;;;;;;;1.67;1.50;;;18.10;47.50;;;;;;5092223;28;20174;-64
2021/04/09 06:44:03;;;;;;;2.13;1.65;;;18.10;47.50;;;;;;5056991;28;20601;-69
2021/04/09 06:46:28;;;;;;;1.55;1.45;;;18.10;47.50;;;;;;5057582;28;20189;-61
2021/04/09 06:48:57;;;;;;;1.77;1.67;;;18.10;47.40;;;;;;5074363;28;20225;-67
2021/04/09 06:51:23;;;;;;;2.40;1.60;;;18.20;47.40;;;;;;5073594;28;20174;-63
2021/04/09 06:53:48;;;;;;;2.25;1.35;;;18.20;47.30;;;;;;5074277;28;20633;-61
2021/04/09 06:56:15;;;;;;;2.13;1.63;;;18.30;47.30;;;;;;5092189;28;20165;-61
2021/04/09 06:58:42;;;;;;;2.35;1.90;;;18.30;47.30;;;;;;5057540;28;20176;-62
2021/04/09 07:01:07;;;;;;;2.00;1.80;;;18.40;47.30;;;;;;5073513;28;20174;-63
2021/04/09 07:03:33;;;;;;;3.13;2.30;;;18.50;47.30;;;;;;5056543;28;20162;-67
2021/04/09 07:05:59;;;;;;;2.75;1.85;;;18.50;47.90;;;;;;5092673;28;20223;-63
2021/04/09 07:08:26;;;;;;;2.53;1.85;;;18.50;47.30;;;;;;5077557;28;20258;-62
2021/04/09 07:10:53;;;;;;;2.78;2.08;;;18.60;47.30;;;;;;5077603;28;20268;-62
2021/04/09 07:13:18;;;;;;;3.67;1.90;;;18.60;47.30;;;;;;5095775;28;20181;-62
2021/04/09 07:15:45;;;;;;;1.65;1.52;;;18.70;48.00;;;;;;5077657;28;20173;-61
2021/04/09 07:18:12;;;;;;;2.85;2.00;;;18.80;47.30;;;;;;5060209;28;20208;-61
2021/04/09 07:20:38;;;;;;;5.15;2.05;;;18.80;47.00;;;;;;5095517;28;20215;-65
2021/04/09 07:23:08;;;;;;;2.53;1.80;;;18.90;47.30;;;;;;5095691;28;20166;-59
2021/04/09 07:25:35;;;;;;;4.07;1.90;;;18.90;47.40;;;;;;5094601;28;20177;-66
2021/04/09 07:28:17;;;;;;;2.17;1.60;;;18.90;47.30;;;;;;5095646;28;20201;-62
2021/04/09 07:30:50;;;;;;;3.97;2.40;;;18.90;47.60;;;;;;5095573;28;20589;-61
2021/04/09 07:33:16;;;;;;;2.30;1.60;;;18.90;47.70;;;;;;5077128;28;20253;-65
2021/04/09 07:35:50;;;;;;;3.97;1.88;;;19.00;47.70;;;;;;5077144;28;20513;-66
2021/04/09 07:38:21;;;;;;;4.10;2.22;;;19.00;47.80;;;;;;5077978;28;20154;-65
2021/04/09 07:40:53;;;;;;;2.17;1.80;;;19.00;47.90;;;;;;5094873;28;20258;-60
2021/04/09 07:43:19;;;;;;;2.15;1.88;;;19.00;48.10;;;;;;5077771;28;20170;-60
2021/04/09 07:45:44;;;;;;;2.03;1.80;;;18.90;48.10;;;;;;5076614;28;20629;-61
2021/04/09 07:48:10;;;;;;;2.97;1.75;;;18.80;48.40;;;;;;5077274;28;20209;-66
2021/04/09 07:50:39;;;;;;;2.25;1.77;;;18.80;48.60;;;;;;5060456;28;20181;-67
2021/04/09 07:53:06;;;;;;;5.15;1.83;;;18.70;48.70;;;;;;5076759;28;20176;-67
2021/04/09 07:55:32;;;;;;;2.60;1.80;;;18.70;49.40;;;;;;5060460;28;20521;-63
2021/04/09 07:58:18;;;;;;;3.17;1.92;;;18.70;48.80;;;;;;5060673;28;20629;-62
2021/04/09 08:00:48;;;;;;;3.92;1.92;;;18.70;48.80;;;;;;5076634;28;20178;-64
2021/04/09 08:03:34;;;;;;;2.50;1.83;;;18.70;48.90;;;;;;5077184;28;20249;-63
2021/04/09 08:06:08;;;;;;;2.67;1.88;;;18.70;49.00;;;;;;5077184;28;20166;-60
2021/04/09 08:08:34;;;;;;;2.47;1.88;;;18.70;49.10;;;;;;5076658;28;20778;-66
2021/04/09 08:11:19;;;;;;;3.10;1.80;;;18.60;49.10;;;;;;5060081;28;20223;-66
2021/04/09 08:13:45;;;;;;;4.15;1.73;;;18.60;49.30;;;;;;5075588;28;20188;-65
2021/04/09 08:16:39;;;;;;;3.42;2.10;;;18.50;49.40;;;;;;5076336;28;20173;-66
2021/04/09 08:19:12;;;;;;;3.70;2.03;;;18.50;49.50;;;;;;5077975;28;20173;-62
2021/04/09 08:21:39;;;;;;;3.67;2.00;;;18.50;49.70;;;;;;5099061;28;20174;-62
2021/04/09 08:24:06;;;;;;;3.13;1.85;;;18.40;49.60;;;;;;5099639;28;20589;-65
2021/04/09 08:26:32;;;;;;;5.60;2.03;;;18.40;49.60;;;;;;5097794;28;20173;-60
2021/04/09 08:28:58;;;;;;;2.95;1.73;;;18.40;49.60;;;;;;5085547;28;20216;-59
2021/04/09 08:31:23;;;;;;;2.80;2.00;;;18.40;49.60;;;;;;5086495;28;20621;-66
2021/04/09 08:33:49;;;;;;;3.97;1.70;;;18.40;49.50;;;;;;5084688;28;20692;-59
2021/04/09 08:36:15;;;;;;;2.83;1.48;;;18.40;49.50;;;;;;5052353;28;20230;-60
2021/04/09 08:38:45;;;;;;;2.67;1.88;;;18.40;49.50;;;;;;5085970;28;20263;-59
2021/04/09 08:41:11;;;;;;;2.28;1.35;;;18.40;49.50;;;;;;5102758;28;20671;-59
2021/04/09 08:43:38;;;;;;;3.70;1.80;;;18.40;49.30;;;;;;5103249;28;20181;-59
2021/04/09 08:46:06;;;;;;;2.97;1.73;;;18.50;49.40;;;;;;5086195;28;20256;-58
2021/04/09 08:48:33;;;;;;;2.83;1.85;;;18.50;49.40;;;;;;5084511;28;20664;-61
2021/04/09 08:50:59;;;;;;;2.38;1.55;;;18.50;49.30;;;;;;5067432;28;20628;-59
2021/04/09 08:53:29;;;;;;;2.20;1.83;;;18.50;49.40;;;;;;5068643;28;20572;-59
2021/04/09 08:55:54;;;;;;;3.42;1.85;;;18.50;49.30;;;;;;5101640;28;20264;-69
2021/04/09 08:58:20;;;;;;;3.70;1.73;;;18.60;49.20;;;;;;5085445;28;20591;-59
2021/04/09 09:00:47;;;;;;;1.88;1.50;;;18.60;49.00;;;;;;5114204;28;20169;-60
2021/04/09 09:03:27;;;;;;;3.33;1.85;;;18.70;49.00;;;;;;5078679;28;20173;-69
2021/04/09 09:06:05;;;;;;;1.88;1.67;;;18.70;49.00;;;;;;5096176;28;20530;-64
2021/04/09 09:08:43;;;;;;;2.55;1.67;;;18.70;48.90;;;;;;5113827;28;20216;-64
2021/04/09 09:11:09;;;;;;;1.95;1.60;;;18.70;48.80;;;;;;5113601;28;20263;-68
2021/04/09 09:13:41;;;;;;;2.10;1.52;;;18.70;48.70;;;;;;5114027;28;20168;-68
2021/04/09 09:16:16;;;;;;;1.95;1.60;;;18.70;48.80;;;;;;5095786;28;20221;-69
2021/04/09 09:18:51;;;;;;;1.52;1.35;;;18.60;48.70;;;;;;5113291;28;20185;-67
2021/04/09 09:21:19;;;;;;;4.25;2.00;;;18.60;49.00;;;;;;5096020;28;20183;-61
2021/04/09 09:23:51;;;;;;;2.45;1.63;;;18.60;48.80;;;;;;5113759;28;20165;-61
2021/04/09 09:26:29;;;;;;;2.63;1.40;;;18.60;48.90;;;;;;5112594;28;20298;-62
2021/04/09 09:29:13;;;;;;;3.90;1.80;;;18.60;48.90;;;;;;5113834;28;20204;-62
2021/04/09 09:31:40;;;;;;;3.70;1.92;;;18.60;49.20;;;;;;5112930;28;20299;-70
2021/04/09 09:34:21;;;;;;;3.92;1.73;;;18.60;49.10;;;;;;5113690;28;20161;-70
2021/04/09 09:37:13;;;;;;;2.45;1.60;;;18.60;49.40;;;;;;5113688;28;20173;-69
2021/04/09 09:39:54;;;;;;;3.03;1.80;;;18.50;49.10;;;;;;5108157;28;20219;-66
2021/04/09 09:42:20;;;;;;;6.60;1.75;;;18.50;49.30;;;;;;5054637;28;20176;-60
2021/04/09 09:44:49;;;;;;;4.22;1.80;;;18.50;49.30;;;;;;5072219;28;20166;-67
2021/04/09 09:47:26;;;;;;;3.20;1.70;;;18.50;49.40;;;;;;5054376;28;20265;-60
2021/04/09 09:50:04;;;;;;;3.63;1.48;;;18.50;49.30;;;;;;5072779;28;20209;-63
2021/04/09 09:52:48;;;;;;;3.35;1.83;;;18.50;50.00;;;;;;5072058;28;20178;-59
2021/04/09 09:55:19;;;;;;;3.70;1.70;;;18.50;49.20;;;;;;5072917;28;20181;-70
2021/04/09 09:57:47;;;;;;;2.45;1.70;;;18.50;49.30;;;;;;5072812;28;20171;-63
2021/04/09 10:00:14;;;;;;;2.00;1.65;;;18.50;49.30;;;;;;5054385;28;20664;-60
2021/04/09 10:02:40;;;;;;;2.55;1.70;;;18.40;49.30;;;;;;5059845;28;20231;-60
2021/04/09 10:05:07;;;;;;;2.00;1.65;;;18.50;49.30;;;;;;5074524;28;20272;-59
2021/04/09 10:07:32;;;;;;;3.03;1.30;;;18.40;49.30;;;;;;5073687;28;20655;-66
2021/04/09 10:09:58;;;;;;;1.90;1.40;;;18.40;49.30;;;;;;5092574;28;20233;-59
2021/04/09 10:12:23;;;;;;;2.13;1.25;;;18.40;49.40;;;;;;5074389;28;20529;-60
2021/04/09 10:14:50;;;;;;;2.28;1.70;;;18.40;49.40;;;;;;5091877;28;20174;-59
2021/04/09 10:17:15;;;;;;;4.20;1.80;;;18.50;49.30;;;;;;5092908;28;20219;-64
2021/04/09 10:20:00;;;;;;;2.72;1.52;;;18.50;49.30;;;;;;5074217;28;20621;-59
2021/04/09 10:22:27;;;;;;;2.40;1.45;;;18.50;49.40;;;;;;5073447;28;20178;-59
2021/04/09 10:24:52;;;;;;;3.40;1.70;;;18.40;49.30;;;;;;5074479;28;20223;-59
2021/04/09 10:27:18;;;;;;;3.55;1.75;;;18.50;49.50;;;;;;5091896;28;20174;-59
2021/04/09 10:29:45;;;;;;;2.15;1.25;;;18.50;49.40;;;;;;5092481;28;20212;-67
2021/04/09 10:32:19;;;;;;;2.22;1.67;;;18.50;49.40;;;;;;5092539;28;20257;-60
2021/04/09 10:34:48;;;;;;;3.90;1.80;;;18.50;49.50;;;;;;5091932;28;20230;-66
2021/04/09 10:37:22;;;;;;;2.08;1.30;;;18.40;49.50;;;;;;5077288;28;20165;-59
2021/04/09 10:39:49;;;;;;;2.65;1.40;;;18.40;49.50;;;;;;5078537;28;20364;-60
2021/04/09 10:42:15;;;;;;;2.22;1.58;;;18.50;49.40;;;;;;5095743;28;20264;-60
2021/04/09 10:44:40;;;;;;;1.77;1.20;;;18.50;49.40;;;;;;5096094;28;20240;-59
2021/04/09 10:47:06;;;;;;;1.83;1.38;;;18.50;49.40;;;;;;5096556;28;20166;-60
2021/04/09 10:49:39;;;;;;;1.40;1.30;;;18.40;49.40;;;;;;5077743;28;20570;-60
2021/04/09 10:52:07;;;;;;;1.65;1.48;;;18.40;49.50;;;;;;5096345;28;20165;-64
2021/04/09 10:54:35;;;;;;;4.57;1.40;;;18.40;49.50;;;;;;5078220;28;20189;-60
2021/04/09 10:57:03;;;;;;;1.90;1.73;;;18.50;49.50;;;;;;5077630;28;20629;-66
2021/04/09 10:59:30;;;;;;;3.10;1.45;;;18.50;49.40;;;;;;5096231;28;20204;-60
2021/04/09 11:01:56;;;;;;;1.42;1.33;;;18.60;49.30;;;;;;5061405;28;20556;-66
2021/04/09 11:04:22;;;;;;;2.50;1.30;;;18.60;49.20;;;;;;5060681;28;20181;-59
2021/04/09 11:06:49;;;;;;;1.90;1.33;;;18.60;49.10;;;;;;5061673;28;20247;-62
2021/04/09 11:09:15;;;;;;;3.63;1.65;;;18.70;49.10;;;;;;5095826;28;20697;-66
2021/04/09 11:11:41;;;;;;;2.25;1.40;;;18.60;49.10;;;;;;5076907;28;20250;-60
2021/04/09 11:14:08;;;;;;;2.00;1.52;;;18.70;49.30;;;;;;5095705;28;20169;-66
2021/04/09 11:16:53;;;;;;;1.67;1.30;;;18.70;49.30;;;;;;5095090;28;20253;-62
2021/04/09 11:19:22;;;;;;;1.45;1.20;;;18.70;49.60;;;;;;5095929;28;20262;-59
2021/04/09 11:21:52;;;;;;;3.28;1.55;;;18.70;49.20;;;;;;5095822;28;20178;-61
2021/04/09 11:24:30;;;;;;;1.50;1.40;;;18.70;49.10;;;;;;5094437;28;20219;-60
2021/04/09 11:26:55;;;;;;;1.75;1.10;;;18.70;49.20;;;;;;5096007;28;20177;-66
2021/04/09 11:29:22;;;;;;;2.45;1.48;;;18.70;49.20;;;;;;5077303;28;20210;-62
2021/04/09 11:31:48;;;;;;;1.70;1.42;;;18.80;49.20;;;;;;5095227;28;20182;-64
2021/04/09 11:34:16;;;;;;;2.72;1.20;;;18.80;49.00;;;;;;5095608;28;20170;-60
2021/04/09 11:36:45;;;;;;;1.35;1.20;;;18.80;49.00;;;;;;5095326;28;20162;-61
2021/04/09 11:39:18;;;;;;;3.25;1.40;;;18.80;49.70;;;;;;5094878;28;20173;-73
2021/04/09 11:42:04;;;;;;;2.22;1.20;;;18.80;49.20;;;;;;5077522;28;20565;-60
2021/04/09 11:44:37;;;;;;;2.25;1.15;;;18.80;49.20;;;;;;5095076;28;20211;-66
2021/04/09 11:47:20;;;;;;;2.13;1.20;;;18.80;49.20;;;;;;5077091;28;20193;-71
2021/04/09 11:50:17;;;;;;;4.35;1.38;;;18.70;49.30;;;;;;5060829;28;20214;-68
2021/04/09 11:52:50;;;;;;;2.60;1.27;;;18.70;49.30;;;;;;5094538;28;20178;-69
2021/04/09 11:55:16;;;;;;;1.80;1.33;;;18.80;49.30;;;;;;5060737;28;20178;-61
2021/04/09 11:57:42;;;;;;;2.55;1.45;;;18.80;49.20;;;;;;5076804;28;20177;-60
2021/04/09 12:00:19;;;;;;;1.92;1.10;;;18.90;49.10;;;;;;5060002;28;20186;-64
2021/04/09 12:02:53;;;;;;;3.38;1.42;;;18.90;49.70;;;;;;5087231;28;20165;-61
2021/04/09 12:05:20;;;;;;;2.60;1.05;;;18.90;49.10;;;;;;5082613;28;20173;-62
2021/04/09 12:07:46;;;;;;;3.40;1.10;;;18.90;49.10;;;;;;5069531;28;20186;-60
2021/04/09 12:10:12;;;;;;;3.10;1.10;;;18.90;49.10;;;;;;5102904;28;20251;-60
2021/04/09 12:12:38;;;;;;;1.40;1.02;;;18.90;49.20;;;;;;5066050;28;20672;-63
2021/04/09 12:15:04;;;;;;;3.10;1.13;;;18.90;49.20;;;;;;5085345;28;20252;-66
2021/04/09 12:17:29;;;;;;;2.17;1.20;;;18.90;49.10;;;;;;5086978;28;20178;-66
2021/04/09 12:19:56;;;;;;;3.20;1.20;;;19.00;49.10;;;;;;5102353;28;20188;-66
2021/04/09 12:22:21;;;;;;;1.75;1.00;;;19.00;49.10;;;;;;5093727;28;20226;-67
2021/04/09 12:24:47;;;;;;;3.58;1.13;;;19.00;49.00;;;;;;5096825;28;20173;-73
2021/04/09 12:27:12;;;;;;;1.98;1.17;;;19.10;49.10;;;;;;5114572;28;20185;-63
2021/04/09 12:29:38;;;;;;;1.77;1.02;;;19.10;49.00;;;;;;5096834;28;20250;-62
2021/04/09 12:32:07;;;;;;;2.13;1.10;;;19.10;48.90;;;;;;5114955;28;20177;-64
2021/04/09 12:34:33;;;;;;;4.45;0.95;;;19.10;49.00;;;;;;5095915;28;20201;-70
2021/04/09 12:36:58;;;;;;;2.50;1.00;;;19.10;49.20;;;;;;5114967;28;20169;-72
2021/04/09 12:39:24;;;;;;;1.42;1.05;;;19.00;49.20;;;;;;5096254;28;20176;-59
2021/04/09 12:41:50;;;;;;;2.03;1.10;;;19.00;49.40;;;;;;5114157;28;20571;-60
2021/04/09 12:44:16;;;;;;;2.38;1.15;;;18.90;49.30;;;;;;5096515;28;20192;-58
2021/04/09 12:46:48;;;;;;;1.50;1.02;;;18.90;49.30;;;;;;5114515;28;20169;-59
2021/04/09 12:49:18;;;;;;;1.75;1.45;;;18.90;49.40;;;;;;5114152;28;20255;-60
2021/04/09 12:51:43;;;;;;;1.25;1.08;;;18.90;49.40;;;;;;5096292;28;20169;-60
2021/04/09 12:54:09;;;;;;;2.30;1.00;;;18.90;49.40;;;;;;5114162;28;20177;-60